sensor_id;sensor_type;location;lat;lon;timestamp;P1;durP1;ratioP1;P2;durP2;ratioP2
65459;SDS011;52058;49.822;6.754;2023-05-07T00:00:19;4.63;;;3.10;;
65459;SDS011;52058;49.822;6.754;2023-05-07T00:02:46;5.97;;;3.72;;
65459;SDS011;52058;49.822;6.754;2023-05-07T00:05:15;3.63;;;3.15;;
65459;SDS011;52058;49.822;6.754;2023-05-07T00:07:42;4.38;;;3.50;;
65459;SDS011;52058;49.822;6.754;2023-05-07T00:10:09;6.03;;;3.90;;
65459;SDS011;52058;49.822;6.754;2023-05-07T00:12:37;4.10;;;3.40;;
65459;SDS011;52058;49.822;6.754;2023-05-07T00:15:04;6.95;;;3.78;;
65459;SDS011;52058;49.822;6.754;2023-05-07T00:17:32;3.70;;;3.40;;
65459;SDS011;52058;49.822;6.754;2023-05-07T00:19:59;5.15;;;3.33;;
65459;SDS011;52058;49.822;6.754;2023-05-07T00:22:27;4.60;;;3.53;;
65459;SDS011;52058;49.822;6.754;2023-05-07T00:24:55;6.05;;;3.78;;
65459;SDS011;52058;49.822;6.754;2023-05-07T00:27:21;5.95;;;4.13;;
65459;SDS011;52058;49.822;6.754;2023-05-07T00:29:48;6.03;;;3.80;;
65459;SDS011;52058;49.822;6.754;2023-05-07T00:32:14;3.35;;;3.05;;
65459;SDS011;52058;49.822;6.754;2023-05-07T00:34:41;5.50;;;3.42;;
65459;SDS011;52058;49.822;6.754;2023-05-07T00:37:08;4.45;;;3.60;;
65459;SDS011;52058;49.822;6.754;2023-05-07T00:39:38;4.45;;;3.97;;
65459;SDS011;52058;49.822;6.754;2023-05-07T00:42:04;5.65;;;3.75;;
65459;SDS011;52058;49.822;6.754;2023-05-07T00:44:31;5.05;;;4.30;;
65459;SDS011;52058;49.822;6.754;2023-05-07T00:46:57;6.35;;;3.78;;
65459;SDS011;52058;49.822;6.754;2023-05-07T00:49:25;6.22;;;3.95;;
65459;SDS011;52058;49.822;6.754;2023-05-07T00:52:01;4.75;;;3.78;;
65459;SDS011;52058;49.822;6.754;2023-05-07T00:54:28;4.95;;;3.40;;
65459;SDS011;52058;49.822;6.754;2023-05-07T00:56:56;6.47;;;3.80;;
65459;SDS011;52058;49.822;6.754;2023-05-07T00:59:23;4.63;;;4.10;;
65459;SDS011;52058;49.822;6.754;2023-05-07T01:01:49;4.63;;;3.85;;
65459;SDS011;52058;49.822;6.754;2023-05-07T01:04:17;4.22;;;3.42;;
65459;SDS011;52058;49.822;6.754;2023-05-07T01:06:43;4.68;;;3.88;;
65459;SDS011;52058;49.822;6.754;2023-05-07T01:09:11;4.60;;;3.88;;
65459;SDS011;52058;49.822;6.754;2023-05-07T01:11:38;7.70;;;4.70;;
65459;SDS011;52058;49.822;6.754;2023-05-07T01:14:07;6.25;;;4.20;;
65459;SDS011;52058;49.822;6.754;2023-05-07T01:16:35;5.78;;;4.32;;
65459;SDS011;52058;49.822;6.754;2023-05-07T01:19:02;5.20;;;4.00;;
65459;SDS011;52058;49.822;6.754;2023-05-07T01:21:30;5.45;;;3.95;;
65459;SDS011;52058;49.822;6.754;2023-05-07T01:24:00;4.95;;;3.90;;
65459;SDS011;52058;49.822;6.754;2023-05-07T01:26:27;6.07;;;4.68;;
65459;SDS011;52058;49.822;6.754;2023-05-07T01:28:54;4.88;;;4.03;;
65459;SDS011;52058;49.822;6.754;2023-05-07T01:31:21;5.18;;;4.00;;
65459;SDS011;52058;49.822;6.754;2023-05-07T01:33:49;6.10;;;3.88;;
65459;SDS011;52058;49.822;6.754;2023-05-07T01:36:18;4.40;;;3.90;;
65459;SDS011;52058;49.822;6.754;2023-05-07T01:38:48;4.78;;;3.80;;
65459;SDS011;52058;49.822;6.754;2023-05-07T01:41:18;4.38;;;3.92;;
65459;SDS011;52058;49.822;6.754;2023-05-07T01:43:46;7.15;;;4.03;;
65459;SDS011;52058;49.822;6.754;2023-05-07T01:46:15;4.75;;;3.83;;
65459;SDS011;52058;49.822;6.754;2023-05-07T01:48:43;5.63;;;3.95;;
65459;SDS011;52058;49.822;6.754;2023-05-07T01:51:11;4.65;;;4.10;;
65459;SDS011;52058;49.822;6.754;2023-05-07T01:53:38;5.10;;;4.25;;
65459;SDS011;52058;49.822;6.754;2023-05-07T01:56:05;6.03;;;3.75;;
65459;SDS011;52058;49.822;6.754;2023-05-07T01:58:34;6.22;;;3.72;;
65459;SDS011;52058;49.822;6.754;2023-05-07T02:01:00;5.03;;;3.90;;
65459;SDS011;52058;49.822;6.754;2023-05-07T02:03:27;5.72;;;4.00;;
65459;SDS011;52058;49.822;6.754;2023-05-07T02:05:53;4.20;;;3.80;;
65459;SDS011;52058;49.822;6.754;2023-05-07T02:08:20;5.80;;;3.85;;
65459;SDS011;52058;49.822;6.754;2023-05-07T02:10:47;5.55;;;4.13;;
65459;SDS011;52058;49.822;6.754;2023-05-07T02:13:14;7.03;;;4.05;;
65459;SDS011;52058;49.822;6.754;2023-05-07T02:15:42;4.78;;;3.97;;
65459;SDS011;52058;49.822;6.754;2023-05-07T02:18:12;4.55;;;3.80;;
65459;SDS011;52058;49.822;6.754;2023-05-07T02:20:38;4.70;;;4.00;;
65459;SDS011;52058;49.822;6.754;2023-05-07T02:23:05;5.68;;;4.05;;
65459;SDS011;52058;49.822;6.754;2023-05-07T02:25:31;5.65;;;3.80;;
65459;SDS011;52058;49.822;6.754;2023-05-07T02:27:58;5.15;;;3.60;;
65459;SDS011;52058;49.822;6.754;2023-05-07T02:30:25;6.53;;;4.43;;
65459;SDS011;52058;49.822;6.754;2023-05-07T02:32:53;7.85;;;4.35;;
65459;SDS011;52058;49.822;6.754;2023-05-07T02:35:19;7.05;;;4.05;;
65459;SDS011;52058;49.822;6.754;2023-05-07T02:37:46;5.57;;;4.38;;
65459;SDS011;52058;49.822;6.754;2023-05-07T02:40:12;4.60;;;3.90;;
65459;SDS011;52058;49.822;6.754;2023-05-07T02:42:39;4.95;;;4.38;;
65459;SDS011;52058;49.822;6.754;2023-05-07T02:45:06;5.43;;;3.92;;
65459;SDS011;52058;49.822;6.754;2023-05-07T02:47:33;5.05;;;3.85;;
65459;SDS011;52058;49.822;6.754;2023-05-07T02:50:01;5.32;;;3.95;;
65459;SDS011;52058;49.822;6.754;2023-05-07T02:52:28;6.05;;;4.25;;
65459;SDS011;52058;49.822;6.754;2023-05-07T02:54:55;4.38;;;3.80;;
65459;SDS011;52058;49.822;6.754;2023-05-07T02:57:21;4.18;;;3.75;;
65459;SDS011;52058;49.822;6.754;2023-05-07T02:59:48;4.28;;;3.38;;
65459;SDS011;52058;49.822;6.754;2023-05-07T03:02:14;3.78;;;3.40;;
65459;SDS011;52058;49.822;6.754;2023-05-07T03:04:41;4.47;;;3.67;;
65459;SDS011;52058;49.822;6.754;2023-05-07T03:07:09;5.47;;;3.63;;
65459;SDS011;52058;49.822;6.754;2023-05-07T03:09:36;5.88;;;3.83;;
65459;SDS011;52058;49.822;6.754;2023-05-07T03:12:02;5.70;;;4.00;;
65459;SDS011;52058;49.822;6.754;2023-05-07T03:14:29;4.55;;;4.10;;
65459;SDS011;52058;49.822;6.754;2023-05-07T03:16:55;6.20;;;5.10;;
65459;SDS011;52058;49.822;6.754;2023-05-07T03:19:22;4.63;;;3.88;;
65459;SDS011;52058;49.822;6.754;2023-05-07T03:21:49;5.43;;;3.53;;
65459;SDS011;52058;49.822;6.754;2023-05-07T03:24:17;4.38;;;3.90;;
65459;SDS011;52058;49.822;6.754;2023-05-07T03:26:43;6.47;;;4.50;;
65459;SDS011;52058;49.822;6.754;2023-05-07T03:35:53;9.35;;;3.97;;
65459;SDS011;52058;49.822;6.754;2023-05-07T03:38:20;4.30;;;3.53;;
65459;SDS011;52058;49.822;6.754;2023-05-07T03:40:48;6.35;;;3.50;;
65459;SDS011;52058;49.822;6.754;2023-05-07T03:43:14;4.10;;;3.45;;
65459;SDS011;52058;49.822;6.754;2023-05-07T03:45:41;4.00;;;3.60;;
65459;SDS011;52058;49.822;6.754;2023-05-07T03:48:08;3.90;;;3.45;;
65459;SDS011;52058;49.822;6.754;2023-05-07T03:50:34;3.60;;;3.17;;
65459;SDS011;52058;49.822;6.754;2023-05-07T03:53:01;4.25;;;3.15;;
65459;SDS011;52058;49.822;6.754;2023-05-07T03:55:27;3.67;;;3.28;;
65459;SDS011;52058;49.822;6.754;2023-05-07T03:57:56;3.90;;;3.45;;
65459;SDS011;52058;49.822;6.754;2023-05-07T04:00:23;3.63;;;3.22;;
65459;SDS011;52058;49.822;6.754;2023-05-07T04:02:49;5.20;;;3.28;;
65459;SDS011;52058;49.822;6.754;2023-05-07T04:05:16;5.00;;;3.25;;
65459;SDS011;52058;49.822;6.754;2023-05-07T04:07:42;3.15;;;2.85;;
65459;SDS011;52058;49.822;6.754;2023-05-07T04:10:09;3.13;;;2.83;;
65459;SDS011;52058;49.822;6.754;2023-05-07T04:12:36;3.38;;;3.00;;
65459;SDS011;52058;49.822;6.754;2023-05-07T04:15:04;4.43;;;3.13;;
65459;SDS011;52058;49.822;6.754;2023-05-07T04:17:31;3.70;;;3.17;;
65459;SDS011;52058;49.822;6.754;2023-05-07T04:19:58;3.83;;;3.10;;
65459;SDS011;52058;49.822;6.754;2023-05-07T04:22:24;3.83;;;3.30;;
65459;SDS011;52058;49.822;6.754;2023-05-07T04:24:51;3.88;;;3.28;;
65459;SDS011;52058;49.822;6.754;2023-05-07T04:27:17;4.80;;;3.10;;
65459;SDS011;52058;49.822;6.754;2023-05-07T04:29:45;3.28;;;2.97;;
65459;SDS011;52058;49.822;6.754;2023-05-07T04:32:13;4.53;;;3.58;;
65459;SDS011;52058;49.822;6.754;2023-05-07T04:34:40;3.50;;;3.20;;
65459;SDS011;52058;49.822;6.754;2023-05-07T04:37:06;4.97;;;3.20;;
65459;SDS011;52058;49.822;6.754;2023-05-07T04:39:33;6.50;;;3.70;;
65459;SDS011;52058;49.822;6.754;2023-05-07T04:42:00;3.67;;;3.38;;
65459;SDS011;52058;49.822;6.754;2023-05-07T04:44:28;3.58;;;3.28;;
65459;SDS011;52058;49.822;6.754;2023-05-07T04:46:56;4.32;;;3.60;;
65459;SDS011;52058;49.822;6.754;2023-05-07T04:49:23;5.72;;;3.45;;
65459;SDS011;52058;49.822;6.754;2023-05-07T04:51:50;4.03;;;3.15;;
65459;SDS011;52058;49.822;6.754;2023-05-07T04:54:17;3.05;;;2.75;;
65459;SDS011;52058;49.822;6.754;2023-05-07T04:56:43;3.45;;;3.05;;
65459;SDS011;52058;49.822;6.754;2023-05-07T04:59:10;3.70;;;3.40;;
65459;SDS011;52058;49.822;6.754;2023-05-07T05:01:36;3.58;;;3.28;;
65459;SDS011;52058;49.822;6.754;2023-05-07T05:04:03;4.78;;;3.10;;
65459;SDS011;52058;49.822;6.754;2023-05-07T05:06:31;3.10;;;2.80;;
65459;SDS011;52058;49.822;6.754;2023-05-07T05:08:57;4.18;;;2.90;;
65459;SDS011;52058;49.822;6.754;2023-05-07T05:11:24;3.42;;;3.08;;
65459;SDS011;52058;49.822;6.754;2023-05-07T05:13:51;4.57;;;3.30;;
65459;SDS011;52058;49.822;6.754;2023-05-07T05:16:17;4.57;;;3.88;;
65459;SDS011;52058;49.822;6.754;2023-05-07T05:18:44;5.60;;;3.65;;
65459;SDS011;52058;49.822;6.754;2023-05-07T05:21:10;3.90;;;3.45;;
65459;SDS011;52058;49.822;6.754;2023-05-07T05:23:38;3.85;;;3.55;;
65459;SDS011;52058;49.822;6.754;2023-05-07T05:26:05;6.05;;;4.05;;
65459;SDS011;52058;49.822;6.754;2023-05-07T05:28:31;7.05;;;3.72;;
65459;SDS011;52058;49.822;6.754;2023-05-07T05:30:58;5.47;;;4.03;;
65459;SDS011;52058;49.822;6.754;2023-05-07T05:33:24;6.18;;;4.40;;
65459;SDS011;52058;49.822;6.754;2023-05-07T05:35:51;5.18;;;3.90;;
65459;SDS011;52058;49.822;6.754;2023-05-07T05:38:17;4.35;;;3.95;;
65459;SDS011;52058;49.822;6.754;2023-05-07T05:40:47;5.55;;;3.80;;
65459;SDS011;52058;49.822;6.754;2023-05-07T05:43:13;4.80;;;3.70;;
65459;SDS011;52058;49.822;6.754;2023-05-07T05:45:40;4.35;;;3.88;;
65459;SDS011;52058;49.822;6.754;2023-05-07T05:48:07;8.82;;;3.25;;
65459;SDS011;52058;49.822;6.754;2023-05-07T05:50:33;3.63;;;3.28;;
65459;SDS011;52058;49.822;6.754;2023-05-07T05:53:00;3.55;;;3.25;;
65459;SDS011;52058;49.822;6.754;2023-05-07T05:55:27;4.82;;;3.60;;
65459;SDS011;52058;49.822;6.754;2023-05-07T05:57:55;4.28;;;3.65;;
65459;SDS011;52058;49.822;6.754;2023-05-07T06:00:22;3.88;;;3.50;;
65459;SDS011;52058;49.822;6.754;2023-05-07T06:02:49;4.38;;;3.67;;
65459;SDS011;52058;49.822;6.754;2023-05-07T06:05:15;4.20;;;3.80;;
65459;SDS011;52058;49.822;6.754;2023-05-07T06:07:42;5.72;;;3.47;;
65459;SDS011;52058;49.822;6.754;2023-05-07T06:10:08;3.65;;;3.25;;
65459;SDS011;52058;49.822;6.754;2023-05-07T06:12:35;5.22;;;3.70;;
65459;SDS011;52058;49.822;6.754;2023-05-07T06:15:03;4.63;;;3.30;;
65459;SDS011;52058;49.822;6.754;2023-05-07T06:17:31;4.00;;;3.40;;
65459;SDS011;52058;49.822;6.754;2023-05-07T06:19:57;5.03;;;3.28;;
65459;SDS011;52058;49.822;6.754;2023-05-07T06:22:24;3.42;;;3.10;;
65459;SDS011;52058;49.822;6.754;2023-05-07T06:24:50;5.68;;;3.63;;
65459;SDS011;52058;49.822;6.754;2023-05-07T06:27:17;3.70;;;3.13;;
65459;SDS011;52058;49.822;6.754;2023-05-07T06:29:43;3.28;;;2.95;;
65459;SDS011;52058;49.822;6.754;2023-05-07T06:32:12;3.20;;;2.90;;
65459;SDS011;52058;49.822;6.754;2023-05-07T06:34:39;3.05;;;2.75;;
65459;SDS011;52058;49.822;6.754;2023-05-07T06:37:06;3.00;;;2.65;;
65459;SDS011;52058;49.822;6.754;2023-05-07T06:39:33;4.82;;;2.85;;
65459;SDS011;52058;49.822;6.754;2023-05-07T06:42:00;4.00;;;2.70;;
65459;SDS011;52058;49.822;6.754;2023-05-07T06:44:27;2.78;;;2.50;;
65459;SDS011;52058;49.822;6.754;2023-05-07T06:46:53;4.93;;;2.95;;
65459;SDS011;52058;49.822;6.754;2023-05-07T06:49:21;3.85;;;3.05;;
65459;SDS011;52058;49.822;6.754;2023-05-07T06:51:48;3.47;;;3.10;;
65459;SDS011;52058;49.822;6.754;2023-05-07T06:54:14;3.50;;;3.20;;
65459;SDS011;52058;49.822;6.754;2023-05-07T06:56:41;3.60;;;3.13;;
65459;SDS011;52058;49.822;6.754;2023-05-07T06:59:07;3.20;;;2.88;;
65459;SDS011;52058;49.822;6.754;2023-05-07T07:01:34;2.97;;;2.67;;
65459;SDS011;52058;49.822;6.754;2023-05-07T07:04:00;3.33;;;2.55;;
65459;SDS011;52058;49.822;6.754;2023-05-07T07:06:28;3.00;;;2.70;;
65459;SDS011;52058;49.822;6.754;2023-05-07T07:08:56;5.03;;;2.83;;
65459;SDS011;52058;49.822;6.754;2023-05-07T07:11:23;3.42;;;2.83;;
65459;SDS011;52058;49.822;6.754;2023-05-07T07:13:49;3.92;;;2.45;;
65459;SDS011;52058;49.822;6.754;2023-05-07T07:16:16;3.70;;;2.55;;
65459;SDS011;52058;49.822;6.754;2023-05-07T07:18:43;3.55;;;2.42;;
65459;SDS011;52058;49.822;6.754;2023-05-07T07:21:10;5.40;;;2.50;;
65459;SDS011;52058;49.822;6.754;2023-05-07T07:23:37;2.42;;;2.22;;
65459;SDS011;52058;49.822;6.754;2023-05-07T07:26:04;2.40;;;2.20;;
65459;SDS011;52058;49.822;6.754;2023-05-07T07:28:31;2.58;;;2.38;;
65459;SDS011;52058;49.822;6.754;2023-05-07T07:30:58;3.03;;;2.50;;
65459;SDS011;52058;49.822;6.754;2023-05-07T07:33:24;3.10;;;2.60;;
65459;SDS011;52058;49.822;6.754;2023-05-07T07:35:51;4.63;;;2.60;;
65459;SDS011;52058;49.822;6.754;2023-05-07T07:38:18;3.45;;;2.40;;
65459;SDS011;52058;49.822;6.754;2023-05-07T07:40:48;4.55;;;2.58;;
65459;SDS011;52058;49.822;6.754;2023-05-07T07:43:14;2.78;;;2.47;;
65459;SDS011;52058;49.822;6.754;2023-05-07T07:45:41;2.90;;;2.15;;
65459;SDS011;52058;49.822;6.754;2023-05-07T07:48:08;2.88;;;2.30;;
65459;SDS011;52058;49.822;6.754;2023-05-07T07:50:34;2.83;;;1.90;;
65459;SDS011;52058;49.822;6.754;2023-05-07T07:53:01;2.90;;;1.70;;
65459;SDS011;52058;49.822;6.754;2023-05-07T07:55:27;2.20;;;2.00;;
65459;SDS011;52058;49.822;6.754;2023-05-07T07:57:57;2.72;;;1.80;;
65459;SDS011;52058;49.822;6.754;2023-05-07T08:00:23;2.55;;;1.77;;
65459;SDS011;52058;49.822;6.754;2023-05-07T08:02:50;2.83;;;1.80;;
65459;SDS011;52058;49.822;6.754;2023-05-07T08:05:17;3.13;;;1.80;;
65459;SDS011;52058;49.822;6.754;2023-05-07T08:07:43;2.20;;;1.80;;
65459;SDS011;52058;49.822;6.754;2023-05-07T08:10:11;3.08;;;2.22;;
65459;SDS011;52058;49.822;6.754;2023-05-07T08:12:37;3.35;;;2.08;;
65459;SDS011;52058;49.822;6.754;2023-05-07T08:15:06;2.75;;;1.90;;
65459;SDS011;52058;49.822;6.754;2023-05-07T08:17:33;3.53;;;2.10;;
65459;SDS011;52058;49.822;6.754;2023-05-07T08:20:00;4.35;;;2.42;;
65459;SDS011;52058;49.822;6.754;2023-05-07T08:22:26;4.25;;;2.15;;
65459;SDS011;52058;49.822;6.754;2023-05-07T08:24:53;2.42;;;2.22;;
65459;SDS011;52058;49.822;6.754;2023-05-07T08:27:20;2.03;;;1.83;;
65459;SDS011;52058;49.822;6.754;2023-05-07T08:29:47;2.65;;;2.10;;
65459;SDS011;52058;49.822;6.754;2023-05-07T08:32:16;3.35;;;2.30;;
65459;SDS011;52058;49.822;6.754;2023-05-07T08:34:42;3.45;;;2.10;;
65459;SDS011;52058;49.822;6.754;2023-05-07T08:37:09;2.88;;;2.22;;
65459;SDS011;52058;49.822;6.754;2023-05-07T08:39:36;2.42;;;2.10;;
65459;SDS011;52058;49.822;6.754;2023-05-07T08:42:03;3.05;;;2.30;;
65459;SDS011;52058;49.822;6.754;2023-05-07T08:44:32;2.40;;;2.03;;
65459;SDS011;52058;49.822;6.754;2023-05-07T08:47:00;2.10;;;1.90;;
65459;SDS011;52058;49.822;6.754;2023-05-07T08:49:29;3.10;;;2.30;;
65459;SDS011;52058;49.822;6.754;2023-05-07T08:51:55;2.53;;;2.03;;
65459;SDS011;52058;49.822;6.754;2023-05-07T08:54:22;3.33;;;2.55;;
65459;SDS011;52058;49.822;6.754;2023-05-07T08:56:49;3.45;;;2.20;;
65459;SDS011;52058;49.822;6.754;2023-05-07T08:59:16;3.95;;;2.13;;
65459;SDS011;52058;49.822;6.754;2023-05-07T09:01:43;3.20;;;2.20;;
65459;SDS011;52058;49.822;6.754;2023-05-07T09:04:09;3.33;;;2.40;;
65459;SDS011;52058;49.822;6.754;2023-05-07T09:06:39;3.03;;;2.20;;
65459;SDS011;52058;49.822;6.754;2023-05-07T09:09:07;3.25;;;2.05;;
65459;SDS011;52058;49.822;6.754;2023-05-07T09:11:33;3.47;;;2.15;;
65459;SDS011;52058;49.822;6.754;2023-05-07T09:14:00;2.38;;;2.03;;
65459;SDS011;52058;49.822;6.754;2023-05-07T09:16:28;2.38;;;2.08;;
65459;SDS011;52058;49.822;6.754;2023-05-07T09:18:56;2.92;;;2.00;;
65459;SDS011;52058;49.822;6.754;2023-05-07T09:21:24;4.32;;;2.20;;
65459;SDS011;52058;49.822;6.754;2023-05-07T09:23:53;2.08;;;1.75;;
65459;SDS011;52058;49.822;6.754;2023-05-07T09:26:21;3.00;;;2.00;;
65459;SDS011;52058;49.822;6.754;2023-05-07T09:28:48;2.30;;;1.90;;
65459;SDS011;52058;49.822;6.754;2023-05-07T09:31:14;2.65;;;2.03;;
65459;SDS011;52058;49.822;6.754;2023-05-07T09:33:41;2.22;;;2.03;;
65459;SDS011;52058;49.822;6.754;2023-05-07T09:36:08;2.80;;;2.10;;
65459;SDS011;52058;49.822;6.754;2023-05-07T09:38:36;2.78;;;1.60;;
65459;SDS011;52058;49.822;6.754;2023-05-07T09:41:05;2.15;;;1.95;;
65459;SDS011;52058;49.822;6.754;2023-05-07T09:43:33;5.07;;;1.80;;
65459;SDS011;52058;49.822;6.754;2023-05-07T09:46:02;4.00;;;1.92;;
65459;SDS011;52058;49.822;6.754;2023-05-07T09:48:29;4.55;;;2.08;;
65459;SDS011;52058;49.822;6.754;2023-05-07T09:50:57;1.98;;;1.70;;
65459;SDS011;52058;49.822;6.754;2023-05-07T09:53:28;2.58;;;1.73;;
65459;SDS011;52058;49.822;6.754;2023-05-07T09:55:56;1.75;;;1.65;;
65459;SDS011;52058;49.822;6.754;2023-05-07T09:58:24;4.85;;;1.80;;
65459;SDS011;52058;49.822;6.754;2023-05-07T10:00:52;1.80;;;1.50;;
65459;SDS011;52058;49.822;6.754;2023-05-07T10:03:19;2.80;;;2.08;;
65459;SDS011;52058;49.822;6.754;2023-05-07T10:05:47;3.30;;;1.60;;
65459;SDS011;52058;49.822;6.754;2023-05-07T10:08:15;2.25;;;1.55;;
65459;SDS011;52058;49.822;6.754;2023-05-07T10:10:42;3.63;;;1.88;;
65459;SDS011;52058;49.822;6.754;2023-05-07T10:13:08;3.47;;;1.73;;
65459;SDS011;52058;49.822;6.754;2023-05-07T10:15:37;1.80;;;1.60;;
65459;SDS011;52058;49.822;6.754;2023-05-07T10:18:04;2.55;;;1.65;;
65459;SDS011;52058;49.822;6.754;2023-05-07T10:20:32;2.75;;;1.73;;
65459;SDS011;52058;49.822;6.754;2023-05-07T10:23:00;4.03;;;1.90;;
65459;SDS011;52058;49.822;6.754;2023-05-07T10:25:30;1.83;;;1.70;;
65459;SDS011;52058;49.822;6.754;2023-05-07T10:27:59;1.85;;;1.60;;
65459;SDS011;52058;49.822;6.754;2023-05-07T10:30:31;3.20;;;1.98;;
65459;SDS011;52058;49.822;6.754;2023-05-07T10:33:06;2.00;;;1.80;;
65459;SDS011;52058;49.822;6.754;2023-05-07T10:35:36;2.33;;;1.52;;
65459;SDS011;52058;49.822;6.754;2023-05-07T10:38:05;1.83;;;1.67;;
65459;SDS011;52058;49.822;6.754;2023-05-07T10:40:32;1.60;;;1.50;;
65459;SDS011;52058;49.822;6.754;2023-05-07T10:43:00;2.17;;;1.50;;
65459;SDS011;52058;49.822;6.754;2023-05-07T10:45:27;3.33;;;1.52;;
65459;SDS011;52058;49.822;6.754;2023-05-07T10:48:06;3.00;;;1.50;;
65459;SDS011;52058;49.822;6.754;2023-05-07T10:50:33;1.73;;;1.25;;
65459;SDS011;52058;49.822;6.754;2023-05-07T10:55:47;2.55;;;1.33;;
65459;SDS011;52058;49.822;6.754;2023-05-07T10:58:24;2.97;;;1.27;;
65459;SDS011;52058;49.822;6.754;2023-05-07T11:00:55;2.03;;;1.30;;
65459;SDS011;52058;49.822;6.754;2023-05-07T11:03:24;1.90;;;1.40;;
65459;SDS011;52058;49.822;6.754;2023-05-07T11:08:55;2.25;;;1.35;;
65459;SDS011;52058;49.822;6.754;2023-05-07T11:17:11;1.60;;;1.20;;
65459;SDS011;52058;49.822;6.754;2023-05-07T11:19:51;1.88;;;1.35;;
65459;SDS011;52058;49.822;6.754;2023-05-07T11:22:35;1.50;;;1.40;;
65459;SDS011;52058;49.822;6.754;2023-05-07T11:25:05;1.95;;;1.42;;
65459;SDS011;52058;49.822;6.754;2023-05-07T11:27:32;2.25;;;1.40;;
65459;SDS011;52058;49.822;6.754;2023-05-07T11:29:59;1.65;;;1.42;;
65459;SDS011;52058;49.822;6.754;2023-05-07T11:32:26;2.13;;;1.40;;
65459;SDS011;52058;49.822;6.754;2023-05-07T11:34:56;3.10;;;1.55;;
65459;SDS011;52058;49.822;6.754;2023-05-07T11:37:24;1.95;;;1.50;;
65459;SDS011;52058;49.822;6.754;2023-05-07T11:39:52;2.33;;;1.20;;
65459;SDS011;52058;49.822;6.754;2023-05-07T11:42:29;3.58;;;1.27;;
65459;SDS011;52058;49.822;6.754;2023-05-07T11:44:57;1.20;;;1.10;;
65459;SDS011;52058;49.822;6.754;2023-05-07T11:47:24;1.98;;;1.20;;
65459;SDS011;52058;49.822;6.754;2023-05-07T11:49:51;1.88;;;1.35;;
65459;SDS011;52058;49.822;6.754;2023-05-07T11:52:20;4.07;;;1.30;;
65459;SDS011;52058;49.822;6.754;2023-05-07T11:54:51;2.15;;;1.40;;
65459;SDS011;52058;49.822;6.754;2023-05-07T11:57:18;1.40;;;1.30;;
65459;SDS011;52058;49.822;6.754;2023-05-07T11:59:45;2.35;;;1.58;;
65459;SDS011;52058;49.822;6.754;2023-05-07T12:02:13;2.80;;;1.40;;
65459;SDS011;52058;49.822;6.754;2023-05-07T12:04:40;1.20;;;1.10;;
65459;SDS011;52058;49.822;6.754;2023-05-07T12:07:11;1.95;;;1.20;;
65459;SDS011;52058;49.822;6.754;2023-05-07T12:09:39;1.48;;;1.30;;
65459;SDS011;52058;49.822;6.754;2023-05-07T12:12:06;1.42;;;1.27;;
65459;SDS011;52058;49.822;6.754;2023-05-07T12:14:37;3.65;;;1.48;;
65459;SDS011;52058;49.822;6.754;2023-05-07T12:17:05;1.60;;;1.02;;
65459;SDS011;52058;49.822;6.754;2023-05-07T12:19:32;1.55;;;1.10;;
65459;SDS011;52058;49.822;6.754;2023-05-07T12:22:00;1.83;;;1.23;;
65459;SDS011;52058;49.822;6.754;2023-05-07T12:24:27;2.55;;;1.25;;
65459;SDS011;52058;49.822;6.754;2023-05-07T12:26:55;1.65;;;1.17;;
65459;SDS011;52058;49.822;6.754;2023-05-07T12:29:22;2.63;;;1.10;;
65459;SDS011;52058;49.822;6.754;2023-05-07T12:31:49;1.55;;;1.20;;
65459;SDS011;52058;49.822;6.754;2023-05-07T12:34:16;2.53;;;1.63;;
65459;SDS011;52058;49.822;6.754;2023-05-07T12:36:42;2.53;;;1.50;;
65459;SDS011;52058;49.822;6.754;2023-05-07T12:39:09;1.58;;;1.40;;
65459;SDS011;52058;49.822;6.754;2023-05-07T12:41:36;2.03;;;1.25;;
65459;SDS011;52058;49.822;6.754;2023-05-07T12:46:46;2.97;;;1.35;;
65459;SDS011;52058;49.822;6.754;2023-05-07T12:49:12;1.80;;;1.10;;
65459;SDS011;52058;49.822;6.754;2023-05-07T12:51:39;1.40;;;1.30;;
65459;SDS011;52058;49.822;6.754;2023-05-07T12:54:06;2.35;;;1.52;;
65459;SDS011;52058;49.822;6.754;2023-05-07T12:56:35;1.80;;;1.40;;
65459;SDS011;52058;49.822;6.754;2023-05-07T12:59:02;2.20;;;1.30;;
65459;SDS011;52058;49.822;6.754;2023-05-07T13:01:30;3.35;;;1.33;;
65459;SDS011;52058;49.822;6.754;2023-05-07T13:04:00;1.27;;;1.13;;
65459;SDS011;52058;49.822;6.754;2023-05-07T13:06:29;1.55;;;1.20;;
65459;SDS011;52058;49.822;6.754;2023-05-07T13:08:56;2.72;;;1.40;;
65459;SDS011;52058;49.822;6.754;2023-05-07T13:11:23;1.65;;;1.27;;
65459;SDS011;52058;49.822;6.754;2023-05-07T13:13:50;3.92;;;1.73;;
65459;SDS011;52058;49.822;6.754;2023-05-07T13:16:16;2.45;;;1.48;;
65459;SDS011;52058;49.822;6.754;2023-05-07T13:18:44;3.10;;;1.48;;
65459;SDS011;52058;49.822;6.754;2023-05-07T13:21:11;2.08;;;1.13;;
65459;SDS011;52058;49.822;6.754;2023-05-07T13:23:38;2.25;;;1.60;;
65459;SDS011;52058;49.822;6.754;2023-05-07T13:26:05;2.42;;;1.42;;
65459;SDS011;52058;49.822;6.754;2023-05-07T13:28:32;1.80;;;1.38;;
65459;SDS011;52058;49.822;6.754;2023-05-07T13:30:58;1.83;;;1.20;;
65459;SDS011;52058;49.822;6.754;2023-05-07T13:33:25;1.88;;;1.48;;
65459;SDS011;52058;49.822;6.754;2023-05-07T13:35:52;1.70;;;1.60;;
65459;SDS011;52058;49.822;6.754;2023-05-07T13:38:22;2.17;;;1.40;;
65459;SDS011;52058;49.822;6.754;2023-05-07T13:40:48;1.48;;;1.20;;
65459;SDS011;52058;49.822;6.754;2023-05-07T13:43:15;1.52;;;1.25;;
65459;SDS011;52058;49.822;6.754;2023-05-07T13:45:42;2.05;;;1.48;;
65459;SDS011;52058;49.822;6.754;2023-05-07T13:48:09;2.78;;;1.50;;
65459;SDS011;52058;49.822;6.754;2023-05-07T13:50:35;1.50;;;1.30;;
65459;SDS011;52058;49.822;6.754;2023-05-07T13:53:03;1.95;;;1.40;;
65459;SDS011;52058;49.822;6.754;2023-05-07T13:55:32;2.78;;;1.50;;
65459;SDS011;52058;49.822;6.754;2023-05-07T13:58:00;2.15;;;1.60;;
65459;SDS011;52058;49.822;6.754;2023-05-07T14:00:27;1.80;;;1.52;;
65459;SDS011;52058;49.822;6.754;2023-05-07T14:02:55;1.90;;;1.50;;
65459;SDS011;52058;49.822;6.754;2023-05-07T14:05:22;2.13;;;1.45;;
65459;SDS011;52058;49.822;6.754;2023-05-07T14:07:49;3.63;;;1.58;;
65459;SDS011;52058;49.822;6.754;2023-05-07T14:10:19;1.75;;;1.30;;
65459;SDS011;52058;49.822;6.754;2023-05-07T14:12:45;2.28;;;1.48;;
65459;SDS011;52058;49.822;6.754;2023-05-07T14:15:12;1.60;;;1.50;;
65459;SDS011;52058;49.822;6.754;2023-05-07T14:17:39;4.25;;;1.50;;
65459;SDS011;52058;49.822;6.754;2023-05-07T14:20:06;2.30;;;1.58;;
65459;SDS011;52058;49.822;6.754;2023-05-07T14:22:34;2.85;;;1.42;;
65459;SDS011;52058;49.822;6.754;2023-05-07T14:25:00;1.50;;;1.40;;
65459;SDS011;52058;49.822;6.754;2023-05-07T14:27:28;1.90;;;1.45;;
65459;SDS011;52058;49.822;6.754;2023-05-07T14:29:55;2.30;;;1.58;;
65459;SDS011;52058;49.822;6.754;2023-05-07T14:32:21;1.85;;;1.50;;
65459;SDS011;52058;49.822;6.754;2023-05-07T14:34:48;2.63;;;1.80;;
65459;SDS011;52058;49.822;6.754;2023-05-07T14:37:15;1.60;;;1.50;;
65459;SDS011;52058;49.822;6.754;2023-05-07T14:39:43;2.00;;;1.80;;
65459;SDS011;52058;49.822;6.754;2023-05-07T14:42:09;2.00;;;1.33;;
65459;SDS011;52058;49.822;6.754;2023-05-07T14:44:38;3.08;;;1.67;;
65459;SDS011;52058;49.822;6.754;2023-05-07T14:47:06;4.80;;;1.85;;
65459;SDS011;52058;49.822;6.754;2023-05-07T14:49:33;2.58;;;1.73;;
65459;SDS011;52058;49.822;6.754;2023-05-07T14:52:00;2.55;;;1.58;;
65459;SDS011;52058;49.822;6.754;2023-05-07T14:54:27;2.33;;;1.30;;
65459;SDS011;52058;49.822;6.754;2023-05-07T14:56:54;1.80;;;1.50;;
65459;SDS011;52058;49.822;6.754;2023-05-07T14:59:21;1.73;;;1.38;;
65459;SDS011;52058;49.822;6.754;2023-05-07T15:01:51;1.60;;;1.50;;
65459;SDS011;52058;49.822;6.754;2023-05-07T15:04:19;4.15;;;1.42;;
65459;SDS011;52058;49.822;6.754;2023-05-07T15:06:45;3.42;;;1.35;;
65459;SDS011;52058;49.822;6.754;2023-05-07T15:09:12;2.15;;;1.40;;